LFRS 181700Z AUTO 26011KT 230V300 CAVOK 24/17 Q1017 NOSIG

ElémentsDécodage
LFRS Station météo située sur l'aérodrome de NANTES Atlantique
181700Z émis le 18 du mois à 17h00 UTC
AUTO Bulletin édité par un automate
26011KT vent du 260°, 11 noeuds
230V300 vent de direction variable entre 230° et 300°
CAVOK Ceiling And Visibility OK
- Visibilité de 10 Km ou plus
- Pas de nuage au-dessous de 1500m ou au-dessous de l'altitude minimale du secteur la plus élevée (si>1500m) et absence de CB
- pas de temps présent significatif
24/17 température 24°C, point de rosée 17°C
 soit une humidité relative de 65%
Q1017 la pression au niveau de la mer (QNH) est de 1017 hPa
NOSIG Pas de changement significatif prévu au cours des deux heures suivant l'heure de l'observation